Погода Любановона 2 недели

Смоленская область, Россия

23 мая-05 июня
  • 23мая
    Сегодня
    +8°
    +23°
    Ясно и безоблачно
    ВремяПогодаТемператураВлажностьДавлениеВетер, м/сВероятность осадков
    00:00Ясно и безоблачно+13°C93 %751 мм3.0 м/с2 %
    03:00Ясно и безоблачно+11°C68 %751 мм3.4 м/с2 %
    06:00Ясно и безоблачно+11°C66 %752 мм3.7 м/с2 %
    09:00Ясно и безоблачно+16°C56 %753 мм4.2 м/с2 %
    12:00Ясно и безоблачно+21°C43 %754 мм5.3 м/с2 %
    15:00Ясно и безоблачно+23°C39 %754 мм4.7 м/с2 %
    18:00Ясно и безоблачно+21°C42 %754 мм4.9 м/с2 %
    21:00Ясно и безоблачно+16°C49 %755 мм3.7 м/с2 %
  • 24мая
    Пятница
    +6°
    +20°
    Ясно и безоблачно
    ВремяПогодаТемператураВлажностьДавлениеВетер, м/сВероятность осадков
    00:00Ясно и безоблачно+12°C60 %756 мм3.2 м/с2 %
    03:00Ясно и безоблачно+9°C63 %757 мм3.2 м/с2 %
    06:00Ясно и безоблачно+9°C61 %757 мм3.6 м/с2 %
    09:00Ясно и безоблачно+15°C49 %758 мм3.6 м/с2 %
    12:00Ясно и безоблачно+18°C38 %758 мм4.2 м/с2 %
    15:00Ясно и безоблачно+20°C32 %757 мм4.1 м/с2 %
    18:00Ясно и безоблачно+19°C35 %756 мм3.6 м/с2 %
    21:00Ясно и безоблачно+14°C50 %756 мм2.9 м/с2 %
  • 25мая
    Суббота
    +7°
    +22°
    Ясно и безоблачно
    ВремяПогодаТемператураВлажностьДавлениеВетер, м/сВероятность осадков
    00:00Ясно и безоблачно+10°C64 %757 мм2.5 м/с2 %
    03:00Ясно и безоблачно+7°C72 %756 мм2.4 м/с2 %
    06:00Ясно и безоблачно+9°C72 %756 мм2.1 м/с2 %
    09:00Ясно и безоблачно+16°C54 %756 мм2.2 м/с2 %
    12:00Ясно и безоблачно+20°C38 %756 мм2.8 м/с2 %
    15:00Ясно и безоблачно+22°C37 %755 мм2.8 м/с2 %
    18:00Ясно и безоблачно+21°C40 %754 мм2.0 м/с2 %
    21:00Ясно и безоблачно+15°C66 %753 мм2.8 м/с2 %
  • 26мая
    Воскресенье
    +10°
    +24°
    Небольшая облачность
    ВремяПогодаТемператураВлажностьДавлениеВетер, м/сВероятность осадков
    00:00Практически безоблачно+11°C73 %753 мм2.4 м/с2 %
    03:00Облачно с прояснениями+8°C80 %753 мм2.5 м/с2 %
    06:00Облачно с прояснениями+10°C76 %753 мм1.4 м/с2 %
    09:00Облачно с прояснениями+18°C54 %753 мм0.3 м/с2 %
    12:00Небольшая облачность+22°C40 %753 мм0.9 м/с2 %
    15:00Небольшая облачность+24°C37 %752 мм0.6 м/с8 %
    18:00Практически безоблачно+24°C39 %752 мм0.5 м/с13 %
    21:00Практически безоблачно+18°C53 %752 мм2.8 м/с5 %
  • 27мая
    Понедельник
    +12°
    +25°
    Небольшая облачность
    ВремяПогодаТемператураВлажностьДавлениеВетер, м/сВероятность осадков
    00:00Ясно и безоблачно+15°C55 %752 мм2.6 м/с2 %
    03:00Практически безоблачно+12°C74 %752 мм2.4 м/с2 %
    06:00Ясно и безоблачно+12°C82 %753 мм2.2 м/с2 %
    09:00Ясно и безоблачно+20°C68 %754 мм1.9 м/с3 %
    12:00Практически безоблачно+24°C50 %754 мм2.4 м/с26 %
    15:00Небольшая облачность+24°C49 %753 мм1.8 м/с30 %
    18:00Небольшая облачность+23°C56 %753 мм2.4 м/с35 %
    21:00Практически безоблачно+18°C78 %753 мм1.8 м/с12 %
Мы используем cookies
Соглашаюсь